createdAt,value
2019-02-11T00:00:54.128Z,4.80
2019-02-11T00:03:22.533Z,4.80
2019-02-11T00:05:50.953Z,4.70
2019-02-11T00:08:19.359Z,4.70
2019-02-11T00:10:47.783Z,4.70
2019-02-11T00:13:16.198Z,4.70
2019-02-11T00:15:44.614Z,4.60
2019-02-11T00:18:13.032Z,4.60
2019-02-11T00:20:41.436Z,4.60
2019-02-11T00:23:09.832Z,4.60
2019-02-11T00:25:38.250Z,4.60
2019-02-11T00:28:06.747Z,4.60
2019-02-11T00:30:35.168Z,4.60
2019-02-11T00:33:04.394Z,4.60
2019-02-11T00:35:32.820Z,4.60
2019-02-11T00:38:01.252Z,4.70
2019-02-11T00:40:29.669Z,4.70
2019-02-11T00:42:58.063Z,4.70
2019-02-11T00:45:26.491Z,4.70
2019-02-11T00:47:54.927Z,4.80
2019-02-11T00:50:23.332Z,4.80
2019-02-11T00:52:51.736Z,4.90
2019-02-11T00:55:20.143Z,4.90
2019-02-11T00:57:48.545Z,4.90
2019-02-11T01:00:17.032Z,4.80
2019-02-11T01:02:45.442Z,4.90
2019-02-11T01:05:13.849Z,4.90
2019-02-11T01:07:42.269Z,4.80
2019-02-11T01:10:11.425Z,4.90
2019-02-11T01:12:41.440Z,5.00
2019-02-11T01:15:11.289Z,5.00
2019-02-11T01:17:39.697Z,5.00
2019-02-11T01:20:10.755Z,5.00
2019-02-11T01:22:39.303Z,5.10
2019-02-11T01:25:08.748Z,5.00
2019-02-11T01:27:37.161Z,5.10
2019-02-11T01:30:09.196Z,5.10
2019-02-11T01:32:37.609Z,5.10
2019-02-11T01:35:07.168Z,5.10
2019-02-11T01:37:35.568Z,5.20
2019-02-11T01:40:06.293Z,5.20
2019-02-11T01:42:34.898Z,5.20
2019-02-11T01:45:04.993Z,5.20
2019-02-11T01:47:33.404Z,5.20
2019-02-11T01:50:01.794Z,5.20
2019-02-11T01:52:30.217Z,5.20
2019-02-11T01:54:58.620Z,5.30
2019-02-11T01:57:27.049Z,5.20
2019-02-11T01:59:55.464Z,5.20
2019-02-11T02:02:23.876Z,5.30
2019-02-11T02:04:52.276Z,5.20
2019-02-11T02:07:20.679Z,5.30
2019-02-11T02:09:49.083Z,5.20
2019-02-11T02:12:18.205Z,5.30
2019-02-11T02:14:46.623Z,5.30
2019-02-11T02:17:15.034Z,5.30
2019-02-11T02:19:43.432Z,5.20
2019-02-11T02:22:11.865Z,5.20
2019-02-11T02:24:40.280Z,5.20
2019-02-11T02:27:08.708Z,5.20
2019-02-11T02:29:37.128Z,5.20
2019-02-11T02:32:05.572Z,5.20
2019-02-11T02:34:33.974Z,5.20
2019-02-11T02:37:02.553Z,5.20
2019-02-11T02:39:30.977Z,5.20
2019-02-11T02:41:59.375Z,5.20
2019-02-11T02:44:47.150Z,5.20
2019-02-11T02:47:15.566Z,5.10
2019-02-11T02:49:43.986Z,5.10
2019-02-11T02:52:12.385Z,5.10
2019-02-11T02:54:40.801Z,5.10
2019-02-11T02:57:09.259Z,5.10
2019-02-11T02:59:37.860Z,5.10
2019-02-11T03:02:06.261Z,5.20
2019-02-11T03:04:34.681Z,5.20
2019-02-11T03:07:03.089Z,5.20
2019-02-11T03:09:31.683Z,5.30
2019-02-11T03:12:00.080Z,5.20
2019-02-11T03:14:28.517Z,5.20
2019-02-11T03:16:56.952Z,5.30
2019-02-11T03:19:25.353Z,5.30
2019-02-11T03:21:53.756Z,5.30
2019-02-11T03:24:22.224Z,5.30
2019-02-11T03:26:50.625Z,5.30
2019-02-11T03:29:19.089Z,5.40
2019-02-11T03:31:47.673Z,5.40
2019-02-11T03:34:16.081Z,5.40
2019-02-11T03:36:44.596Z,5.40
2019-02-11T03:39:13.009Z,5.40
2019-02-11T03:41:41.410Z,5.40
2019-02-11T03:44:15.083Z,5.50
2019-02-11T03:46:40.031Z,5.40
2019-02-11T03:49:08.473Z,5.40
2019-02-11T03:51:36.896Z,5.40
2019-02-11T03:54:05.345Z,5.50
2019-02-11T03:56:33.820Z,5.40
2019-02-11T03:59:02.236Z,5.50
2019-02-11T04:01:30.647Z,5.50
2019-02-11T04:03:59.052Z,5.50
2019-02-11T04:06:27.744Z,5.50
2019-02-11T04:08:56.145Z,5.40
2019-02-11T04:11:24.558Z,5.50
2019-02-11T04:13:53.047Z,5.40
2019-02-11T04:16:21.465Z,5.40
2019-02-11T04:18:49.991Z,5.40
2019-02-11T04:21:18.713Z,5.40
2019-02-11T04:23:47.109Z,5.30
2019-02-11T04:26:15.564Z,5.40
2019-02-11T04:28:44.030Z,5.40
2019-02-11T04:31:12.515Z,5.30
2019-02-11T04:33:40.914Z,5.40
2019-02-11T04:36:09.319Z,5.40
2019-02-11T04:38:37.722Z,5.40
2019-02-11T04:41:06.137Z,5.40
2019-02-11T04:43:34.540Z,5.40
2019-02-11T04:46:02.971Z,5.40
2019-02-11T04:48:31.371Z,5.40
2019-02-11T04:51:01.207Z,5.30
2019-02-11T04:53:29.643Z,5.30
2019-02-11T04:55:58.049Z,5.30
2019-02-11T04:58:26.452Z,5.40
2019-02-11T05:00:54.888Z,5.30
2019-02-11T05:03:23.305Z,5.30
2019-02-11T05:05:51.705Z,5.30
2019-02-11T05:08:20.118Z,5.30
2019-02-11T05:10:48.679Z,5.30
2019-02-11T05:13:17.113Z,5.40
2019-02-11T05:15:45.577Z,5.40
2019-02-11T05:18:13.999Z,5.40
2019-02-11T05:20:42.400Z,5.40
2019-02-11T05:23:30.148Z,5.40
2019-02-11T05:25:58.591Z,5.40
2019-02-11T05:28:27.084Z,5.40
2019-02-11T05:30:55.562Z,5.40
2019-02-11T05:33:24.065Z,5.40
2019-02-11T05:35:52.483Z,5.50
2019-02-11T05:38:20.901Z,5.50
2019-02-11T05:40:49.309Z,5.50
2019-02-11T05:43:17.727Z,5.40
2019-02-11T05:45:46.126Z,5.40
2019-02-11T05:48:14.528Z,5.50
2019-02-11T05:50:42.946Z,5.40
2019-02-11T05:53:11.378Z,5.50
2019-02-11T05:55:39.782Z,5.50
2019-02-11T05:58:08.209Z,5.50
2019-02-11T06:00:36.621Z,5.50
2019-02-11T06:03:05.023Z,5.50
2019-02-11T06:05:33.613Z,5.50
2019-02-11T06:08:02.101Z,5.50
2019-02-11T06:10:30.508Z,5.50
2019-02-11T06:12:58.915Z,5.50
2019-02-11T06:15:27.320Z,5.50
2019-02-11T06:17:55.739Z,5.50
2019-02-11T06:20:24.146Z,5.50
2019-02-11T06:22:52.579Z,5.50
2019-02-11T06:25:20.982Z,5.60
2019-02-11T06:27:49.384Z,5.60
2019-02-11T06:30:20.464Z,5.60
2019-02-11T06:32:48.896Z,5.60
2019-02-11T06:35:17.325Z,5.60
2019-02-11T06:37:45.721Z,5.50
2019-02-11T06:40:14.165Z,5.60
2019-02-11T06:42:42.584Z,5.50
2019-02-11T06:45:13.351Z,5.50
2019-02-11T06:47:42.134Z,5.50
2019-02-11T06:50:13.645Z,5.50
2019-02-11T06:52:42.083Z,5.50
2019-02-11T06:55:12.146Z,6.30
2019-02-11T06:57:40.545Z,7.10
2019-02-11T07:00:14.428Z,7.20
2019-02-11T07:02:42.977Z,7.60
2019-02-11T07:05:11.389Z,7.80
2019-02-11T07:07:39.797Z,7.50
2019-02-11T07:10:10.749Z,8.10
2019-02-11T07:12:39.256Z,8.40
2019-02-11T07:15:10.591Z,8.30
2019-02-11T07:17:40.538Z,7.80
2019-02-11T07:20:10.382Z,7.20
2019-02-11T07:22:39.255Z,7.50
2019-02-11T07:25:09.259Z,6.20
2019-02-11T07:27:39.831Z,5.70
2019-02-11T07:30:14.817Z,5.50
2019-02-11T07:32:43.222Z,5.50
2019-02-11T07:35:11.637Z,5.50
2019-02-11T07:37:40.054Z,5.50
2019-02-11T07:40:10.929Z,5.50
2019-02-11T07:42:43.477Z,5.50
2019-02-11T07:45:30.392Z,5.60
2019-02-11T07:47:59.064Z,5.60
2019-02-11T07:50:27.807Z,5.60
2019-02-11T07:52:56.203Z,5.60
2019-02-11T07:55:24.914Z,5.50
2019-02-11T07:57:53.517Z,5.60
2019-02-11T08:00:21.936Z,5.50
2019-02-11T08:02:50.371Z,5.50
2019-02-11T08:05:18.891Z,5.60
2019-02-11T08:07:47.284Z,5.60
2019-02-11T08:10:15.729Z,5.70
2019-02-11T08:12:44.132Z,5.70
2019-02-11T08:15:12.532Z,5.70
2019-02-11T08:17:40.962Z,5.60
2019-02-11T08:20:09.891Z,5.60
2019-02-11T08:22:38.875Z,5.60
2019-02-11T08:25:07.283Z,5.60
2019-02-11T08:27:35.692Z,5.60
2019-02-11T08:30:06.819Z,5.70
2019-02-11T08:32:35.224Z,5.70
2019-02-11T08:35:04.101Z,5.70
2019-02-11T08:37:32.518Z,5.70
2019-02-11T08:40:00.929Z,5.70
2019-02-11T08:42:29.363Z,5.70
2019-02-11T08:44:57.948Z,5.70
2019-02-11T08:47:26.372Z,5.70
2019-02-11T08:49:54.882Z,5.70
2019-02-11T08:52:24.050Z,5.80
2019-02-11T08:54:52.668Z,5.80
2019-02-11T08:57:21.080Z,5.70
2019-02-11T08:59:49.476Z,5.80
2019-02-11T09:02:17.905Z,5.80
2019-02-11T09:04:46.313Z,5.80
2019-02-11T09:07:14.724Z,5.80
2019-02-11T09:09:43.136Z,5.90
2019-02-11T09:12:11.569Z,5.90
2019-02-11T09:14:39.981Z,5.90
2019-02-11T09:17:10.305Z,6.00
2019-02-11T09:19:38.540Z,6.20
2019-02-11T09:22:07.896Z,6.20
2019-02-11T09:24:36.619Z,6.10
2019-02-11T09:27:05.049Z,6.20
2019-02-11T09:29:33.463Z,6.00
2019-02-11T09:32:03.268Z,6.00
2019-02-11T09:34:31.684Z,6.10
2019-02-11T09:37:00.103Z,6.00
2019-02-11T09:39:28.527Z,6.10
2019-02-11T09:41:56.975Z,6.10
2019-02-11T09:44:29.735Z,6.00
2019-02-11T09:46:55.565Z,6.00
2019-02-11T09:49:24.151Z,6.00
2019-02-11T09:51:53.125Z,6.00
2019-02-11T09:54:21.528Z,6.00
2019-02-11T09:56:49.921Z,6.00
2019-02-11T09:59:18.332Z,5.90
2019-02-11T10:01:46.752Z,5.90
2019-02-11T10:04:15.165Z,6.00
2019-02-11T10:06:43.589Z,6.10
2019-02-11T10:09:12.010Z,6.10
2019-02-11T10:11:40.469Z,6.10
2019-02-11T10:14:08.881Z,6.10
2019-02-11T10:16:37.277Z,6.20
2019-02-11T10:19:05.702Z,6.10
2019-02-11T10:21:34.291Z,6.20
2019-02-11T10:24:02.692Z,6.10
2019-02-11T10:26:31.119Z,6.00
2019-02-11T10:29:01.065Z,6.10
2019-02-11T10:31:29.549Z,6.30
2019-02-11T10:33:57.964Z,6.50
2019-02-11T10:36:26.422Z,6.40
2019-02-11T10:38:54.883Z,6.30
2019-02-11T10:41:23.284Z,6.30
2019-02-11T10:43:51.700Z,6.30
2019-02-11T10:46:21.227Z,6.30
2019-02-11T10:48:49.809Z,6.40
2019-02-11T10:51:18.381Z,6.40
2019-02-11T10:53:47.199Z,6.50
2019-02-11T10:56:15.628Z,6.50
2019-02-11T10:58:44.692Z,6.60
2019-02-11T11:01:13.409Z,6.70
2019-02-11T11:03:42.453Z,6.60
2019-02-11T11:06:11.170Z,6.50
2019-02-11T11:08:39.563Z,6.50
2019-02-11T11:11:07.996Z,6.60
2019-02-11T11:13:36.396Z,6.70
2019-02-11T11:16:05.382Z,6.90
2019-02-11T11:18:33.812Z,6.80
2019-02-11T11:21:02.208Z,6.80
2019-02-11T11:23:30.610Z,6.90
2019-02-11T11:25:59.036Z,6.90
2019-02-11T11:28:27.461Z,6.80
2019-02-11T11:30:55.860Z,6.80
2019-02-11T11:33:24.271Z,6.70
2019-02-11T11:35:52.680Z,6.90
2019-02-11T11:38:21.123Z,7.00
2019-02-11T11:40:49.576Z,7.00
2019-02-11T11:43:17.980Z,7.20
2019-02-11T11:45:46.417Z,7.20
2019-02-11T11:48:14.859Z,7.20
2019-02-11T11:50:43.261Z,7.10
2019-02-11T11:53:11.688Z,7.10
2019-02-11T11:55:40.097Z,7.20
2019-02-11T11:58:08.505Z,7.10
2019-02-11T12:00:37.321Z,7.10
2019-02-11T12:03:06.193Z,7.00
2019-02-11T12:05:34.848Z,7.10
2019-02-11T12:08:03.316Z,7.00
2019-02-11T12:10:31.778Z,6.90
2019-02-11T12:13:00.229Z,6.80
2019-02-11T12:15:28.618Z,6.70
2019-02-11T12:17:57.048Z,6.80
2019-02-11T12:20:25.521Z,6.90
2019-02-11T12:22:53.943Z,6.90
2019-02-11T12:25:22.414Z,7.00
2019-02-11T12:27:50.917Z,7.00
2019-02-11T12:30:26.849Z,7.00
2019-02-11T12:32:56.241Z,7.00
2019-02-11T12:35:25.121Z,7.00
2019-02-11T12:37:54.149Z,6.80
2019-02-11T12:40:22.537Z,6.90
2019-02-11T12:42:53.198Z,7.00
2019-02-11T12:45:23.537Z,7.10
2019-02-11T12:47:52.208Z,7.20
2019-02-11T12:50:20.692Z,7.20
2019-02-11T12:52:49.183Z,7.10
2019-02-11T12:55:18.946Z,7.10
2019-02-11T12:57:47.421Z,7.10
2019-02-11T13:00:23.858Z,7.30
2019-02-11T13:02:52.731Z,7.40
2019-02-11T13:05:23.556Z,7.20
2019-02-11T13:07:51.367Z,7.10
2019-02-11T13:10:20.575Z,7.20
2019-02-11T13:12:49.712Z,7.20
2019-02-11T13:15:42.825Z,7.10
2019-02-11T13:17:51.051Z,7.20
2019-02-11T13:20:20.181Z,7.20
2019-02-11T13:22:48.737Z,7.00
2019-02-11T13:25:17.989Z,7.10
2019-02-11T13:27:47.104Z,7.00
2019-02-11T13:30:26.266Z,7.10
2019-02-11T13:32:54.840Z,7.20
2019-02-11T13:35:23.617Z,7.20
2019-02-11T13:37:55.174Z,7.30
2019-02-11T13:40:22.280Z,7.30
2019-02-11T13:42:50.836Z,7.30
2019-02-11T13:45:20.677Z,7.30
2019-02-11T13:47:56.242Z,7.20
2019-02-11T13:50:25.661Z,7.20
2019-02-11T13:52:54.852Z,7.10
2019-02-11T13:55:24.109Z,7.10
2019-02-11T13:57:53.149Z,7.00
2019-02-11T14:00:28.343Z,6.90
2019-02-11T14:02:58.209Z,6.90
2019-02-11T14:05:28.165Z,6.90
2019-02-11T14:07:58.690Z,6.90
2019-02-11T14:10:27.204Z,6.90
2019-02-11T14:12:55.671Z,6.90
2019-02-11T14:15:24.098Z,6.90
2019-02-11T14:18:09.589Z,7.10
2019-02-11T14:20:27.018Z,7.00
2019-02-11T14:22:55.483Z,7.00
2019-02-11T14:25:40.895Z,7.00
2019-02-11T14:27:54.045Z,6.90
2019-02-11T14:30:22.893Z,7.00
2019-02-11T14:32:51.382Z,6.90
2019-02-11T14:35:20.928Z,6.80
2019-02-11T14:37:49.361Z,6.80
2019-02-11T14:40:17.995Z,6.80
2019-02-11T14:42:46.430Z,6.80
2019-02-11T14:45:16.904Z,6.80
2019-02-11T14:47:45.425Z,6.80
2019-02-11T14:50:13.953Z,6.90
2019-02-11T14:52:42.370Z,6.80
2019-02-11T14:55:11.646Z,6.80
2019-02-11T14:57:42.594Z,6.90
2019-02-11T15:00:20.355Z,6.70
2019-02-11T15:02:48.856Z,6.70
2019-02-11T15:05:17.980Z,6.80
2019-02-11T15:07:46.744Z,6.80
2019-02-11T15:10:15.980Z,6.70
2019-02-11T15:12:44.405Z,6.70
2019-02-11T15:15:14.062Z,6.70
2019-02-11T15:17:46.723Z,6.60
2019-02-11T15:20:16.265Z,6.40
2019-02-11T15:22:44.673Z,6.30
2019-02-11T15:25:14.931Z,6.40
2019-02-11T15:27:43.421Z,6.50
2019-02-11T15:30:15.021Z,6.40
2019-02-11T15:32:43.431Z,6.20
2019-02-11T15:35:11.922Z,6.00
2019-02-11T15:37:40.407Z,6.00
2019-02-11T15:40:20.502Z,5.90
2019-02-11T15:42:48.926Z,5.80
2019-02-11T15:45:17.631Z,5.80
2019-02-11T15:47:46.042Z,5.80
2019-02-11T15:50:16.489Z,5.70
2019-02-11T15:52:44.908Z,5.60
2019-02-11T15:55:20.952Z,5.60
2019-02-11T15:57:49.387Z,5.60
2019-02-11T16:00:25.151Z,5.50
2019-02-11T16:02:53.580Z,5.40
2019-02-11T16:05:22.131Z,5.40
2019-02-11T16:07:50.532Z,5.40
2019-02-11T16:10:21.690Z,5.30
2019-02-11T16:12:50.128Z,5.20
2019-02-11T16:15:19.296Z,5.20
2019-02-11T16:17:49.760Z,5.10
2019-02-11T16:20:18.168Z,5.00
2019-02-11T16:22:46.567Z,5.00
2019-02-11T16:25:15.711Z,4.90
2019-02-11T16:27:44.130Z,5.00
2019-02-11T16:30:20.375Z,5.00
2019-02-11T16:32:48.782Z,4.90
2019-02-11T16:35:20.085Z,4.80
2019-02-11T16:37:48.488Z,4.80
2019-02-11T16:40:22.793Z,4.70
2019-02-11T16:42:51.220Z,4.70
2019-02-11T16:45:21.168Z,4.70
2019-02-11T16:47:49.564Z,4.60
2019-02-11T16:50:18.737Z,4.70
2019-02-11T16:52:47.256Z,4.80
2019-02-11T16:55:15.678Z,4.70
2019-02-11T16:57:44.081Z,4.70
2019-02-11T17:00:19.660Z,4.70
2019-02-11T17:02:48.066Z,4.70
2019-02-11T17:05:16.492Z,4.60
2019-02-11T17:07:44.885Z,4.60
2019-02-11T17:10:14.702Z,4.60
2019-02-11T17:12:43.329Z,4.60
2019-02-11T17:15:16.917Z,4.60
2019-02-11T17:17:45.378Z,4.70
2019-02-11T17:20:15.232Z,4.80
2019-02-11T17:22:44.929Z,5.60
2019-02-11T17:25:14.539Z,5.80
2019-02-11T17:27:44.763Z,6.00
2019-02-11T17:30:19.006Z,5.80
2019-02-11T17:32:47.397Z,5.40
2019-02-11T17:35:15.805Z,5.10
2019-02-11T17:37:44.214Z,5.00
2019-02-11T17:40:14.233Z,4.90
2019-02-11T17:42:42.664Z,4.90
2019-02-11T17:45:26.040Z,4.90
2019-02-11T17:47:54.453Z,5.00
2019-02-11T17:50:22.869Z,4.90
2019-02-11T17:52:53.932Z,4.90
2019-02-11T17:55:22.375Z,4.90
2019-02-11T17:57:51.020Z,4.90
2019-02-11T18:00:29.307Z,4.90
2019-02-11T18:02:57.723Z,4.90
2019-02-11T18:05:26.159Z,4.90
2019-02-11T18:07:54.558Z,4.90
2019-02-11T18:10:22.980Z,4.80
2019-02-11T18:12:52.497Z,4.90
2019-02-11T18:15:20.916Z,4.70
2019-02-11T18:17:49.361Z,4.60
2019-02-11T18:20:17.849Z,4.60
2019-02-11T18:22:46.242Z,4.60
2019-02-11T18:25:14.654Z,4.50
2019-02-11T18:27:44.324Z,4.50
2019-02-11T18:30:15.347Z,4.40
2019-02-11T18:32:44.008Z,4.40
2019-02-11T18:35:14.596Z,4.40
2019-02-11T18:37:43.006Z,4.30
2019-02-11T18:40:14.337Z,4.30
2019-02-11T18:42:43.036Z,4.40
2019-02-11T18:45:13.882Z,4.30
2019-02-11T18:47:42.594Z,4.30
2019-02-11T18:50:13.465Z,4.40
2019-02-11T18:52:43.644Z,4.50
2019-02-11T18:55:20.600Z,4.50
2019-02-11T18:57:49.043Z,4.40
2019-02-11T19:00:19.541Z,4.40
2019-02-11T19:02:48.852Z,4.30
2019-02-11T19:05:17.840Z,4.30
2019-02-11T19:07:46.514Z,4.50
2019-02-11T19:10:16.705Z,4.30
2019-02-11T19:12:45.505Z,4.40
2019-02-11T19:15:15.558Z,4.40
2019-02-11T19:17:43.970Z,4.40
2019-02-11T19:20:15.252Z,4.30
2019-02-11T19:22:43.672Z,4.30
2019-02-11T19:25:12.919Z,4.20
2019-02-11T19:27:41.375Z,4.20
2019-02-11T19:30:15.746Z,4.20
2019-02-11T19:32:44.179Z,4.20
2019-02-11T19:35:12.584Z,4.20
2019-02-11T19:37:41.152Z,4.10
2019-02-11T19:40:12.285Z,4.10
2019-02-11T19:42:40.734Z,4.10
2019-02-11T19:45:12.411Z,4.10
2019-02-11T19:47:41.007Z,4.10
2019-02-11T19:50:15.023Z,4.10
2019-02-11T19:52:43.729Z,4.00
2019-02-11T19:55:14.176Z,4.00
2019-02-11T19:57:42.631Z,4.00
2019-02-11T20:00:24.417Z,4.00
2019-02-11T20:02:52.979Z,4.00
2019-02-11T20:05:21.431Z,3.90
2019-02-11T20:07:49.936Z,3.90
2019-02-11T20:10:25.068Z,3.90
2019-02-11T20:12:53.497Z,3.80
2019-02-11T20:15:27.378Z,3.80
2019-02-11T20:17:55.831Z,3.80
2019-02-11T20:20:24.232Z,3.80
2019-02-11T20:22:52.644Z,3.70
2019-02-11T20:25:22.615Z,3.80
2019-02-11T20:27:51.035Z,3.80
2019-02-11T20:30:22.344Z,3.70
2019-02-11T20:32:50.761Z,3.70
2019-02-11T20:35:19.408Z,3.70
2019-02-11T20:37:47.901Z,3.60
2019-02-11T20:40:19.210Z,3.60
2019-02-11T20:42:47.628Z,3.60
2019-02-11T20:45:18.649Z,3.60
2019-02-11T20:47:47.061Z,3.70
2019-02-11T20:50:15.551Z,3.70
2019-02-11T20:52:44.012Z,3.70
2019-02-11T20:55:14.027Z,3.70
2019-02-11T20:57:43.569Z,3.70
2019-02-11T21:00:15.957Z,3.70
2019-02-11T21:03:08.408Z,3.60
2019-02-11T21:05:33.829Z,4.20
2019-02-11T21:08:02.268Z,4.60
2019-02-11T21:10:30.688Z,5.00
2019-02-11T21:13:00.104Z,5.20
2019-02-11T21:15:28.500Z,4.90
2019-02-11T21:17:56.962Z,4.80
2019-02-11T21:20:31.299Z,4.80
2019-02-11T21:23:00.256Z,4.70
2019-02-11T21:25:28.707Z,4.60
2019-02-11T21:27:57.140Z,4.70
2019-02-11T21:30:26.617Z,4.60
2019-02-11T21:32:55.152Z,4.80
2019-02-11T21:35:23.558Z,5.10
2019-02-11T21:37:51.956Z,5.10
2019-02-11T21:40:20.372Z,5.00
2019-02-11T21:42:48.769Z,5.00
2019-02-11T21:45:17.174Z,4.70
2019-02-11T21:47:45.676Z,4.90
2019-02-11T21:50:26.660Z,4.20
2019-02-11T21:52:51.430Z,3.90
2019-02-11T21:55:22.095Z,3.80
2019-02-11T21:57:50.516Z,3.60
2019-02-11T22:00:21.348Z,3.60
2019-02-11T22:02:49.763Z,3.70
2019-02-11T22:05:18.240Z,3.70
2019-02-11T22:07:46.708Z,3.70
2019-02-11T22:10:21.054Z,3.70
2019-02-11T22:12:49.492Z,3.80
2019-02-11T22:15:17.906Z,3.70
2019-02-11T22:17:46.299Z,3.70
2019-02-11T22:20:19.129Z,3.70
2019-02-11T22:22:47.524Z,3.80
2019-02-11T22:25:16.023Z,3.80
2019-02-11T22:27:44.416Z,3.70
2019-02-11T22:30:23.941Z,3.80
2019-02-11T22:32:52.347Z,3.70
2019-02-11T22:35:20.903Z,3.70
2019-02-11T22:37:50.917Z,3.70
2019-02-11T22:40:19.328Z,3.80
2019-02-11T22:42:47.766Z,3.80
2019-02-11T22:45:24.135Z,3.70
2019-02-11T22:47:52.540Z,3.80
2019-02-11T22:50:20.988Z,3.70
2019-02-11T22:52:49.409Z,3.70
2019-02-11T22:55:17.975Z,3.80
2019-02-11T22:57:46.373Z,3.80
2019-02-11T23:00:45.907Z,3.70
2019-02-11T23:03:14.941Z,3.70
2019-02-11T23:05:43.722Z,3.80
2019-02-11T23:08:12.414Z,3.80
2019-02-11T23:10:40.820Z,3.90
2019-02-11T23:13:09.248Z,3.70
2019-02-11T23:15:37.654Z,3.70
2019-02-11T23:18:06.431Z,3.70
2019-02-11T23:20:34.910Z,3.70
2019-02-11T23:23:03.309Z,3.70
2019-02-11T23:25:31.721Z,3.70
2019-02-11T23:28:00.636Z,3.80
2019-02-11T23:30:29.065Z,3.70
2019-02-11T23:32:57.464Z,3.70
2019-02-11T23:35:25.912Z,3.60
2019-02-11T23:37:54.311Z,3.70
2019-02-11T23:40:22.750Z,3.70
2019-02-11T23:42:51.147Z,3.70
2019-02-11T23:45:19.676Z,3.70
2019-02-11T23:47:48.079Z,3.60
2019-02-11T23:50:16.508Z,3.70
2019-02-11T23:52:44.900Z,3.70
2019-02-11T23:55:13.681Z,3.70
2019-02-11T23:57:43.403Z,3.70
